sensor_id;sensor_type;location;lat;lon;timestamp;pressure;altitude;pressure_sealevel;temperature;humidity
13867;BME280;7003;46.982;15.248;2022-11-15T00:01:15;97443.38;;;7.26;100.00
13867;BME280;7003;46.982;15.248;2022-11-15T00:03:43;97447.09;;;7.25;100.00
13867;BME280;7003;46.982;15.248;2022-11-15T00:06:10;97446.31;;;7.24;100.00
13867;BME280;7003;46.982;15.248;2022-11-15T00:08:37;97446.81;;;7.26;100.00
13867;BME280;7003;46.982;15.248;2022-11-15T00:11:06;97436.88;;;7.32;100.00
13867;BME280;7003;46.982;15.248;2022-11-15T00:13:33;97431.59;;;7.32;100.00
13867;BME280;7003;46.982;15.248;2022-11-15T00:16:02;97429.63;;;7.38;100.00
13867;BME280;7003;46.982;15.248;2022-11-15T00:18:32;97424.31;;;7.38;100.00
13867;BME280;7003;46.982;15.248;2022-11-15T00:21:04;97434.31;;;7.41;100.00
13867;BME280;7003;46.982;15.248;2022-11-15T00:23:32;97435.78;;;7.47;100.00
13867;BME280;7003;46.982;15.248;2022-11-15T00:25:59;97439.00;;;7.44;100.00
13867;BME280;7003;46.982;15.248;2022-11-15T00:28:27;97433.44;;;7.45;100.00
13867;BME280;7003;46.982;15.248;2022-11-15T00:30:59;97429.69;;;7.46;100.00
13867;BME280;7003;46.982;15.248;2022-11-15T00:33:29;97432.19;;;7.43;100.00
13867;BME280;7003;46.982;15.248;2022-11-15T00:36:02;97429.53;;;7.43;100.00
13867;BME280;7003;46.982;15.248;2022-11-15T00:38:31;97429.41;;;7.48;100.00
13867;BME280;7003;46.982;15.248;2022-11-15T00:40:58;97419.03;;;7.38;100.00
13867;BME280;7003;46.982;15.248;2022-11-15T00:43:26;97426.69;;;7.39;100.00
13867;BME280;7003;46.982;15.248;2022-11-15T00:45:55;97420.44;;;7.35;100.00
13867;BME280;7003;46.982;15.248;2022-11-15T00:48:22;97414.91;;;7.45;100.00
13867;BME280;7003;46.982;15.248;2022-11-15T00:50:51;97416.09;;;7.39;100.00
13867;BME280;7003;46.982;15.248;2022-11-15T00:53:21;97416.50;;;7.32;100.00
13867;BME280;7003;46.982;15.248;2022-11-15T00:55:52;97420.03;;;7.28;100.00
13867;BME280;7003;46.982;15.248;2022-11-15T00:58:22;97412.53;;;7.44;100.00
13867;BME280;7003;46.982;15.248;2022-11-15T01:00:52;97414.34;;;7.34;100.00
13867;BME280;7003;46.982;15.248;2022-11-15T01:03:20;97412.19;;;7.23;100.00
13867;BME280;7003;46.982;15.248;2022-11-15T01:05:48;97409.25;;;7.24;100.00
13867;BME280;7003;46.982;15.248;2022-11-15T01:08:16;97409.66;;;7.31;100.00
13867;BME280;7003;46.982;15.248;2022-11-15T01:10:47;97397.69;;;7.20;100.00
13867;BME280;7003;46.982;15.248;2022-11-15T01:13:14;97397.31;;;7.13;100.00
13867;BME280;7003;46.982;15.248;2022-11-15T01:15:41;97401.13;;;7.21;100.00
13867;BME280;7003;46.982;15.248;2022-11-15T01:18:09;97400.84;;;7.09;100.00
13867;BME280;7003;46.982;15.248;2022-11-15T01:20:39;97403.59;;;7.17;100.00
13867;BME280;7003;46.982;15.248;2022-11-15T01:23:07;97390.84;;;7.06;100.00
13867;BME280;7003;46.982;15.248;2022-11-15T01:25:36;97394.50;;;7.10;100.00
13867;BME280;7003;46.982;15.248;2022-11-15T01:28:06;97394.31;;;6.92;100.00
13867;BME280;7003;46.982;15.248;2022-11-15T01:30:35;97397.72;;;6.93;100.00
13867;BME280;7003;46.982;15.248;2022-11-15T01:33:03;97401.06;;;6.99;100.00
13867;BME280;7003;46.982;15.248;2022-11-15T01:35:32;97404.41;;;7.04;100.00
13867;BME280;7003;46.982;15.248;2022-11-15T01:37:59;97399.19;;;6.99;100.00
13867;BME280;7003;46.982;15.248;2022-11-15T01:40:26;97388.31;;;7.01;100.00
13867;BME280;7003;46.982;15.248;2022-11-15T01:42:57;97389.09;;;7.01;100.00
13867;BME280;7003;46.982;15.248;2022-11-15T01:45:25;97391.63;;;7.06;100.00
13867;BME280;7003;46.982;15.248;2022-11-15T01:47:53;97396.63;;;7.08;100.00
13867;BME280;7003;46.982;15.248;2022-11-15T01:50:23;97387.34;;;7.10;100.00
13867;BME280;7003;46.982;15.248;2022-11-15T01:52:52;97387.34;;;7.10;100.00
13867;BME280;7003;46.982;15.248;2022-11-15T01:55:22;97377.84;;;7.09;100.00
13867;BME280;7003;46.982;15.248;2022-11-15T01:57:52;97372.53;;;7.09;100.00
13867;BME280;7003;46.982;15.248;2022-11-15T02:00:21;97379.28;;;7.15;100.00
13867;BME280;7003;46.982;15.248;2022-11-15T02:02:48;97374.59;;;7.12;100.00
13867;BME280;7003;46.982;15.248;2022-11-15T02:05:16;97375.19;;;7.09;100.00
13867;BME280;7003;46.982;15.248;2022-11-15T02:07:43;97365.69;;;7.08;100.00
13867;BME280;7003;46.982;15.248;2022-11-15T02:10:13;97363.03;;;7.08;100.00
13867;BME280;7003;46.982;15.248;2022-11-15T02:12:41;97363.41;;;7.15;100.00
13867;BME280;7003;46.982;15.248;2022-11-15T02:15:10;97358.13;;;7.15;100.00
13867;BME280;7003;46.982;15.248;2022-11-15T02:17:52;97357.06;;;7.16;100.00
13867;BME280;7003;46.982;15.248;2022-11-15T02:20:37;97354.63;;;7.06;100.00
13867;BME280;7003;46.982;15.248;2022-11-15T02:23:38;97352.97;;;6.97;100.00
13867;BME280;7003;46.982;15.248;2022-11-15T02:26:40;97347.97;;;6.95;100.00
13867;BME280;7003;46.982;15.248;2022-11-15T02:29:19;97352.50;;;6.81;100.00
13867;BME280;7003;46.982;15.248;2022-11-15T02:31:55;97353.66;;;6.75;100.00
13867;BME280;7003;46.982;15.248;2022-11-15T02:34:36;97351.63;;;6.85;100.00
13867;BME280;7003;46.982;15.248;2022-11-15T02:37:14;97358.56;;;6.81;100.00
13867;BME280;7003;46.982;15.248;2022-11-15T02:39:49;97355.91;;;6.68;100.00
13867;BME280;7003;46.982;15.248;2022-11-15T02:42:21;97353.09;;;6.64;100.00
13867;BME280;7003;46.982;15.248;2022-11-15T02:45:11;97351.91;;;6.56;100.00
13867;BME280;7003;46.982;15.248;2022-11-15T02:47:46;97349.75;;;6.58;100.00
13867;BME280;7003;46.982;15.248;2022-11-15T02:50:20;97347.41;;;6.43;100.00
13867;BME280;7003;46.982;15.248;2022-11-15T02:52:49;97341.13;;;6.53;100.00
13867;BME280;7003;46.982;15.248;2022-11-15T02:55:28;97339.78;;;6.69;100.00
13867;BME280;7003;46.982;15.248;2022-11-15T02:58:16;97334.28;;;6.52;100.00
13867;BME280;7003;46.982;15.248;2022-11-15T03:00:55;97338.78;;;6.38;100.00
13867;BME280;7003;46.982;15.248;2022-11-15T03:03:51;97337.13;;;6.55;100.00
13867;BME280;7003;46.982;15.248;2022-11-15T03:06:29;97330.84;;;6.51;100.00
13867;BME280;7003;46.982;15.248;2022-11-15T03:09:04;97332.72;;;6.37;100.00
13867;BME280;7003;46.982;15.248;2022-11-15T03:11:39;97323.72;;;6.38;100.00
13867;BME280;7003;46.982;15.248;2022-11-15T03:14:18;97319.63;;;6.32;100.00
13867;BME280;7003;46.982;15.248;2022-11-15T03:16:55;97330.28;;;6.41;100.00
13867;BME280;7003;46.982;15.248;2022-11-15T03:19:31;97326.06;;;6.26;100.00
13867;BME280;7003;46.982;15.248;2022-11-15T03:22:04;97322.53;;;6.44;100.00
13867;BME280;7003;46.982;15.248;2022-11-15T03:24:38;97311.41;;;6.34;100.00
13867;BME280;7003;46.982;15.248;2022-11-15T03:27:06;97322.75;;;6.34;100.00
13867;BME280;7003;46.982;15.248;2022-11-15T03:29:39;97307.75;;;6.30;100.00
13867;BME280;7003;46.982;15.248;2022-11-15T03:32:11;97312.25;;;6.15;100.00
13867;BME280;7003;46.982;15.248;2022-11-15T03:34:47;97310.19;;;6.12;100.00
13867;BME280;7003;46.982;15.248;2022-11-15T03:37:22;97315.47;;;6.12;100.00
13867;BME280;7003;46.982;15.248;2022-11-15T03:39:51;97307.09;;;6.24;100.00
13867;BME280;7003;46.982;15.248;2022-11-15T03:42:22;97308.81;;;6.15;100.00
13867;BME280;7003;46.982;15.248;2022-11-15T03:45:01;97310.59;;;6.19;100.00
13867;BME280;7003;46.982;15.248;2022-11-15T03:47:35;97309.91;;;6.14;100.00
13867;BME280;7003;46.982;15.248;2022-11-15T03:50:08;97305.13;;;6.16;100.00
13867;BME280;7003;46.982;15.248;2022-11-15T03:52:37;97304.72;;;6.09;100.00
13867;BME280;7003;46.982;15.248;2022-11-15T03:55:09;97306.47;;;6.13;100.00
13867;BME280;7003;46.982;15.248;2022-11-15T03:57:37;97306.97;;;6.15;100.00
13867;BME280;7003;46.982;15.248;2022-11-15T04:00:05;97306.84;;;6.07;100.00
13867;BME280;7003;46.982;15.248;2022-11-15T04:02:33;97304.13;;;6.12;100.00
13867;BME280;7003;46.982;15.248;2022-11-15T04:05:00;97306.41;;;6.32;100.00
13867;BME280;7003;46.982;15.248;2022-11-15T04:07:30;97303.75;;;6.18;100.00
13867;BME280;7003;46.982;15.248;2022-11-15T04:09:57;97302.38;;;6.21;100.00
13867;BME280;7003;46.982;15.248;2022-11-15T04:12:31;97298.28;;;6.29;100.00
13867;BME280;7003;46.982;15.248;2022-11-15T04:15:00;97292.78;;;6.11;100.00
13867;BME280;7003;46.982;15.248;2022-11-15T04:17:36;97289.84;;;6.13;100.00
13867;BME280;7003;46.982;15.248;2022-11-15T04:20:04;97287.69;;;6.15;100.00
13867;BME280;7003;46.982;15.248;2022-11-15T04:22:54;97287.53;;;6.25;100.00
13867;BME280;7003;46.982;15.248;2022-11-15T04:25:38;97279.31;;;6.27;100.00
13867;BME280;7003;46.982;15.248;2022-11-15T04:28:08;97277.91;;;6.15;100.00
13867;BME280;7003;46.982;15.248;2022-11-15T04:30:38;97276.13;;;5.97;100.00
13867;BME280;7003;46.982;15.248;2022-11-15T04:33:05;97271.75;;;5.93;100.00
13867;BME280;7003;46.982;15.248;2022-11-15T04:35:32;97271.25;;;6.04;100.00
13867;BME280;7003;46.982;15.248;2022-11-15T04:38:03;97269.72;;;6.03;100.00
13867;BME280;7003;46.982;15.248;2022-11-15T04:40:29;97262.66;;;5.99;100.00
13867;BME280;7003;46.982;15.248;2022-11-15T04:42:57;97258.34;;;6.30;100.00
13867;BME280;7003;46.982;15.248;2022-11-15T04:45:24;97254.44;;;6.14;100.00
13867;BME280;7003;46.982;15.248;2022-11-15T04:47:51;97260.22;;;6.16;100.00
13867;BME280;7003;46.982;15.248;2022-11-15T04:50:20;97258.16;;;6.13;100.00
13867;BME280;7003;46.982;15.248;2022-11-15T04:52:51;97261.88;;;6.12;100.00
13867;BME280;7003;46.982;15.248;2022-11-15T04:55:23;97258.06;;;6.18;100.00
13867;BME280;7003;46.982;15.248;2022-11-15T04:57:58;97245.25;;;6.25;100.00
13867;BME280;7003;46.982;15.248;2022-11-15T05:00:27;97241.53;;;6.26;100.00
13867;BME280;7003;46.982;15.248;2022-11-15T05:02:54;97242.69;;;6.20;100.00
13867;BME280;7003;46.982;15.248;2022-11-15T05:05:39;97238.13;;;6.26;100.00
13867;BME280;7003;46.982;15.248;2022-11-15T05:08:06;97233.69;;;6.21;100.00
13867;BME280;7003;46.982;15.248;2022-11-15T05:10:34;97237.63;;;6.24;100.00
13867;BME280;7003;46.982;15.248;2022-11-15T05:13:02;97235.66;;;6.15;100.00
13867;BME280;7003;46.982;15.248;2022-11-15T05:15:31;97234.78;;;6.20;100.00
13867;BME280;7003;46.982;15.248;2022-11-15T05:17:58;97234.47;;;6.22;100.00
13867;BME280;7003;46.982;15.248;2022-11-15T05:20:28;97229.81;;;6.18;100.00
13867;BME280;7003;46.982;15.248;2022-11-15T05:22:57;97234.31;;;6.18;100.00
13867;BME280;7003;46.982;15.248;2022-11-15T05:25:25;97225.50;;;6.09;100.00
13867;BME280;7003;46.982;15.248;2022-11-15T05:27:56;97219.53;;;6.17;100.00
13867;BME280;7003;46.982;15.248;2022-11-15T05:30:23;97222.34;;;6.21;100.00
13867;BME280;7003;46.982;15.248;2022-11-15T05:32:50;97208.75;;;6.13;100.00
13867;BME280;7003;46.982;15.248;2022-11-15T05:35:21;97216.97;;;6.12;100.00
13867;BME280;7003;46.982;15.248;2022-11-15T05:37:53;97212.78;;;6.11;100.00
13867;BME280;7003;46.982;15.248;2022-11-15T05:40:23;97219.03;;;6.15;100.00
13867;BME280;7003;46.982;15.248;2022-11-15T05:42:53;97225.50;;;6.09;100.00
13867;BME280;7003;46.982;15.248;2022-11-15T05:45:22;97234.41;;;6.27;100.00
13867;BME280;7003;46.982;15.248;2022-11-15T05:47:50;97221.09;;;6.32;100.00
13867;BME280;7003;46.982;15.248;2022-11-15T05:50:18;97223.41;;;6.19;100.00
13867;BME280;7003;46.982;15.248;2022-11-15T05:52:48;97220.88;;;6.14;100.00
13867;BME280;7003;46.982;15.248;2022-11-15T05:55:19;97227.72;;;6.29;100.00
13867;BME280;7003;46.982;15.248;2022-11-15T05:57:47;97225.88;;;6.16;100.00
13867;BME280;7003;46.982;15.248;2022-11-15T06:00:15;97235.94;;;6.14;100.00
13867;BME280;7003;46.982;15.248;2022-11-15T06:02:45;97229.22;;;6.08;100.00
13867;BME280;7003;46.982;15.248;2022-11-15T06:05:13;97234.19;;;6.23;100.00
13867;BME280;7003;46.982;15.248;2022-11-15T06:07:41;97235.25;;;6.22;100.00
13867;BME280;7003;46.982;15.248;2022-11-15T06:10:11;97232.53;;;6.27;100.00
13867;BME280;7003;46.982;15.248;2022-11-15T06:12:41;97234.31;;;6.18;100.00
13867;BME280;7003;46.982;15.248;2022-11-15T06:15:10;97226.53;;;6.35;100.00
13867;BME280;7003;46.982;15.248;2022-11-15T06:17:40;97228.03;;;6.14;100.00
13867;BME280;7003;46.982;15.248;2022-11-15T06:20:12;97239.59;;;6.18;100.00
13867;BME280;7003;46.982;15.248;2022-11-15T06:22:40;97241.91;;;6.19;100.00
13867;BME280;7003;46.982;15.248;2022-11-15T06:25:08;97256.00;;;6.15;100.00
13867;BME280;7003;46.982;15.248;2022-11-15T06:27:36;97252.47;;;6.19;100.00
13867;BME280;7003;46.982;15.248;2022-11-15T06:30:07;97244.06;;;6.31;100.00
13867;BME280;7003;46.982;15.248;2022-11-15T06:32:41;97251.09;;;6.36;100.00
13867;BME280;7003;46.982;15.248;2022-11-15T06:35:15;97254.75;;;6.26;100.00
13867;BME280;7003;46.982;15.248;2022-11-15T06:37:43;97253.75;;;6.22;100.00
13867;BME280;7003;46.982;15.248;2022-11-15T06:40:13;97252.69;;;6.37;100.00
13867;BME280;7003;46.982;15.248;2022-11-15T06:42:42;97250.16;;;6.32;100.00
13867;BME280;7003;46.982;15.248;2022-11-15T06:45:15;97251.59;;;6.38;100.00
13867;BME280;7003;46.982;15.248;2022-11-15T06:47:47;97259.25;;;6.39;100.00
13867;BME280;7003;46.982;15.248;2022-11-15T06:50:18;97257.19;;;6.36;100.00
13867;BME280;7003;46.982;15.248;2022-11-15T06:52:47;97255.03;;;6.38;100.00
13867;BME280;7003;46.982;15.248;2022-11-15T06:55:15;97257.09;;;6.41;100.00
13867;BME280;7003;46.982;15.248;2022-11-15T06:57:49;97259.91;;;6.45;100.00
13867;BME280;7003;46.982;15.248;2022-11-15T07:00:19;97256.88;;;6.51;100.00
13867;BME280;7003;46.982;15.248;2022-11-15T07:02:48;97261.56;;;6.54;100.00
13867;BME280;7003;46.982;15.248;2022-11-15T07:05:19;97250.00;;;6.50;100.00
13867;BME280;7003;46.982;15.248;2022-11-15T07:07:52;97257.16;;;6.64;100.00
13867;BME280;7003;46.982;15.248;2022-11-15T07:10:25;97246.22;;;6.56;100.00
13867;BME280;7003;46.982;15.248;2022-11-15T07:12:54;97250.59;;;6.61;100.00
13867;BME280;7003;46.982;15.248;2022-11-15T07:15:26;97243.25;;;6.72;100.00
13867;BME280;7003;46.982;15.248;2022-11-15T07:17:55;97237.47;;;6.70;100.00
13867;BME280;7003;46.982;15.248;2022-11-15T07:20:26;97248.53;;;6.72;100.00
13867;BME280;7003;46.982;15.248;2022-11-15T07:23:00;97245.41;;;6.70;100.00
13867;BME280;7003;46.982;15.248;2022-11-15T07:25:29;97251.97;;;6.58;100.00
13867;BME280;7003;46.982;15.248;2022-11-15T07:28:01;97245.19;;;6.66;100.00
13867;BME280;7003;46.982;15.248;2022-11-15T07:30:33;97244.03;;;6.72;100.00
13867;BME280;7003;46.982;15.248;2022-11-15T07:33:02;97245.28;;;6.75;100.00
13867;BME280;7003;46.982;15.248;2022-11-15T07:35:32;97234.94;;;6.65;100.00
13867;BME280;7003;46.982;15.248;2022-11-15T07:38:02;97235.22;;;6.63;100.00
13867;BME280;7003;46.982;15.248;2022-11-15T07:40:32;97231.47;;;6.78;100.00
13867;BME280;7003;46.982;15.248;2022-11-15T07:43:02;97234.94;;;6.65;100.00
13867;BME280;7003;46.982;15.248;2022-11-15T07:45:32;97230.91;;;6.67;100.00
13867;BME280;7003;46.982;15.248;2022-11-15T07:48:02;97227.16;;;6.82;100.00
13867;BME280;7003;46.982;15.248;2022-11-15T07:50:32;97222.63;;;6.82;100.00
13867;BME280;7003;46.982;15.248;2022-11-15T07:53:02;97223.88;;;6.99;100.00
13867;BME280;7003;46.982;15.248;2022-11-15T07:55:30;97217.91;;;6.93;100.00
13867;BME280;7003;46.982;15.248;2022-11-15T07:58:02;97224.69;;;6.85;100.00
13867;BME280;7003;46.982;15.248;2022-11-15T08:00:32;97233.41;;;6.86;100.00
13867;BME280;7003;46.982;15.248;2022-11-15T08:03:04;97230.69;;;6.77;100.00
13867;BME280;7003;46.982;15.248;2022-11-15T08:05:36;97234.00;;;6.83;100.00
13867;BME280;7003;46.982;15.248;2022-11-15T08:08:09;97223.63;;;6.86;100.00
13867;BME280;7003;46.982;15.248;2022-11-15T08:10:39;97227.72;;;6.92;100.00
13867;BME280;7003;46.982;15.248;2022-11-15T08:13:11;97227.19;;;7.04;100.00
13867;BME280;7003;46.982;15.248;2022-11-15T08:15:40;97225.69;;;7.12;100.00
13867;BME280;7003;46.982;15.248;2022-11-15T08:18:14;97230.91;;;7.03;100.00
13867;BME280;7003;46.982;15.248;2022-11-15T08:20:44;97220.63;;;7.02;100.00
13867;BME280;7003;46.982;15.248;2022-11-15T08:23:16;97212.56;;;7.07;100.00
13867;BME280;7003;46.982;15.248;2022-11-15T08:25:45;97216.84;;;6.94;100.00
13867;BME280;7003;46.982;15.248;2022-11-15T08:28:16;97214.56;;;7.01;100.00
13867;BME280;7003;46.982;15.248;2022-11-15T08:30:48;97209.03;;;7.11;100.00
13867;BME280;7003;46.982;15.248;2022-11-15T08:33:16;97209.75;;;7.03;100.00
13867;BME280;7003;46.982;15.248;2022-11-15T08:35:47;97212.09;;;7.27;100.00
13867;BME280;7003;46.982;15.248;2022-11-15T08:38:16;97207.84;;;7.17;100.00
13867;BME280;7003;46.982;15.248;2022-11-15T08:40:46;97196.19;;;7.18;100.00
13867;BME280;7003;46.982;15.248;2022-11-15T08:43:15;97194.84;;;7.29;100.00
13867;BME280;7003;46.982;15.248;2022-11-15T08:45:44;97193.31;;;7.37;100.00
13867;BME280;7003;46.982;15.248;2022-11-15T08:48:14;97195.81;;;7.33;100.00
13867;BME280;7003;46.982;15.248;2022-11-15T08:50:47;97190.88;;;7.41;100.00
13867;BME280;7003;46.982;15.248;2022-11-15T08:53:19;97191.09;;;7.30;100.00
13867;BME280;7003;46.982;15.248;2022-11-15T08:55:52;97190.47;;;7.56;100.00
13867;BME280;7003;46.982;15.248;2022-11-15T08:58:21;97190.75;;;7.23;100.00
13867;BME280;7003;46.982;15.248;2022-11-15T09:00:52;97193.25;;;7.28;100.00
13867;BME280;7003;46.982;15.248;2022-11-15T09:03:20;97187.97;;;7.28;100.00
13867;BME280;7003;46.982;15.248;2022-11-15T09:05:54;97191.47;;;7.38;100.00
13867;BME280;7003;46.982;15.248;2022-11-15T09:08:24;97188.13;;;7.54;100.00
13867;BME280;7003;46.982;15.248;2022-11-15T09:10:56;97183.94;;;7.31;100.00
13867;BME280;7003;46.982;15.248;2022-11-15T09:13:29;97175.97;;;7.53;100.00
13867;BME280;7003;46.982;15.248;2022-11-15T09:15:59;97178.13;;;7.51;100.00
13867;BME280;7003;46.982;15.248;2022-11-15T09:18:30;97175.19;;;7.53;100.00
13867;BME280;7003;46.982;15.248;2022-11-15T09:21:08;97168.69;;;7.59;100.00
13867;BME280;7003;46.982;15.248;2022-11-15T09:23:40;97169.50;;;7.68;100.00
13867;BME280;7003;46.982;15.248;2022-11-15T09:26:14;97168.56;;;7.64;100.00
13867;BME280;7003;46.982;15.248;2022-11-15T09:28:44;97161.09;;;7.66;100.00
13867;BME280;7003;46.982;15.248;2022-11-15T09:31:15;97165.19;;;7.72;100.00
13867;BME280;7003;46.982;15.248;2022-11-15T09:33:46;97165.50;;;7.79;100.00
13867;BME280;7003;46.982;15.248;2022-11-15T09:36:18;97164.91;;;7.91;100.00
13867;BME280;7003;46.982;15.248;2022-11-15T09:38:51;97164.00;;;7.95;100.00
13867;BME280;7003;46.982;15.248;2022-11-15T09:41:39;97160.91;;;8.02;100.00
13867;BME280;7003;46.982;15.248;2022-11-15T09:44:29;97156.38;;;7.94;100.00
13867;BME280;7003;46.982;15.248;2022-11-15T09:47:17;97148.44;;;8.02;100.00
13867;BME280;7003;46.982;15.248;2022-11-15T09:49:52;97148.31;;;8.16;100.00
13867;BME280;7003;46.982;15.248;2022-11-15T09:52:28;97149.13;;;8.25;100.00
13867;BME280;7003;46.982;15.248;2022-11-15T09:54:59;97142.63;;;8.40;100.00
13867;BME280;7003;46.982;15.248;2022-11-15T09:57:32;97136.38;;;8.44;100.00
13867;BME280;7003;46.982;15.248;2022-11-15T10:00:11;97140.13;;;8.52;100.00
13867;BME280;7003;46.982;15.248;2022-11-15T10:05:39;97128.44;;;8.44;100.00
13867;BME280;7003;46.982;15.248;2022-11-15T10:08:23;97120.91;;;8.29;100.00
13867;BME280;7003;46.982;15.248;2022-11-15T10:10:58;97114.09;;;8.45;100.00
13867;BME280;7003;46.982;15.248;2022-11-15T10:13:32;97116.44;;;8.56;100.00
13867;BME280;7003;46.982;15.248;2022-11-15T10:16:10;97106.44;;;8.70;100.00
13867;BME280;7003;46.982;15.248;2022-11-15T10:18:52;97103.19;;;8.81;100.00
13867;BME280;7003;46.982;15.248;2022-11-15T10:21:27;97100.34;;;8.95;100.00
13867;BME280;7003;46.982;15.248;2022-11-15T10:24:10;97097.09;;;8.90;100.00
13867;BME280;7003;46.982;15.248;2022-11-15T10:26:46;97088.78;;;8.91;100.00
13867;BME280;7003;46.982;15.248;2022-11-15T10:29:20;97083.63;;;9.12;100.00
13867;BME280;7003;46.982;15.248;2022-11-15T10:31:51;97072.31;;;9.23;100.00
13867;BME280;7003;46.982;15.248;2022-11-15T10:34:26;97070.72;;;9.31;100.00
13867;BME280;7003;46.982;15.248;2022-11-15T10:37:00;97067.97;;;9.19;100.00
13867;BME280;7003;46.982;15.248;2022-11-15T10:39:31;97061.25;;;9.21;100.00
13867;BME280;7003;46.982;15.248;2022-11-15T10:42:18;97062.97;;;9.26;100.00
13867;BME280;7003;46.982;15.248;2022-11-15T10:44:46;97062.47;;;9.33;100.00
13867;BME280;7003;46.982;15.248;2022-11-15T10:47:28;97053.72;;;9.32;100.00
13867;BME280;7003;46.982;15.248;2022-11-15T10:50:04;97041.78;;;9.47;100.00
13867;BME280;7003;46.982;15.248;2022-11-15T10:52:45;97037.59;;;9.75;100.00
13867;BME280;7003;46.982;15.248;2022-11-15T10:55:26;97033.09;;;10.17;100.00
13867;BME280;7003;46.982;15.248;2022-11-15T10:58:02;97027.28;;;10.15;100.00
13867;BME280;7003;46.982;15.248;2022-11-15T11:00:36;97019.66;;;10.14;100.00
13867;BME280;7003;46.982;15.248;2022-11-15T11:03:25;97007.19;;;10.47;100.00
13867;BME280;7003;46.982;15.248;2022-11-15T11:06:08;97004.69;;;10.30;100.00
13867;BME280;7003;46.982;15.248;2022-11-15T11:08:37;96999.81;;;10.11;100.00
13867;BME280;7003;46.982;15.248;2022-11-15T11:11:10;96996.38;;;10.11;100.00
13867;BME280;7003;46.982;15.248;2022-11-15T11:13:40;96995.22;;;9.99;100.00
13867;BME280;7003;46.982;15.248;2022-11-15T11:16:38;96986.72;;;9.85;100.00
13867;BME280;7003;46.982;15.248;2022-11-15T11:19:30;96983.81;;;9.99;100.00
13867;BME280;7003;46.982;15.248;2022-11-15T11:22:09;96975.78;;;9.87;100.00
13867;BME280;7003;46.982;15.248;2022-11-15T11:24:45;96972.91;;;9.92;100.00
13867;BME280;7003;46.982;15.248;2022-11-15T11:27:30;96972.91;;;9.92;100.00
13867;BME280;7003;46.982;15.248;2022-11-15T11:30:09;96972.75;;;9.97;100.00
13867;BME280;7003;46.982;15.248;2022-11-15T11:33:08;96964.56;;;10.02;100.00
13867;BME280;7003;46.982;15.248;2022-11-15T11:35:54;96960.88;;;9.94;100.00
13867;BME280;7003;46.982;15.248;2022-11-15T11:38:39;96956.34;;;9.95;100.00
13867;BME280;7003;46.982;15.248;2022-11-15T11:41:20;96953.88;;;9.90;100.00
13867;BME280;7003;46.982;15.248;2022-11-15T11:44:02;96950.91;;;9.71;100.00
13867;BME280;7003;46.982;15.248;2022-11-15T11:46:49;96949.22;;;9.66;100.00
13867;BME280;7003;46.982;15.248;2022-11-15T11:49:25;96940.78;;;9.64;100.00
13867;BME280;7003;46.982;15.248;2022-11-15T11:52:01;96937.16;;;9.69;100.00
13867;BME280;7003;46.982;15.248;2022-11-15T11:54:40;96939.13;;;9.59;100.00
13867;BME280;7003;46.982;15.248;2022-11-15T11:57:17;96930.50;;;9.62;100.00
13867;BME280;7003;46.982;15.248;2022-11-15T11:59:58;96931.31;;;9.54;100.00
13867;BME280;7003;46.982;15.248;2022-11-15T12:02:33;96925.75;;;9.47;100.00
13867;BME280;7003;46.982;15.248;2022-11-15T12:05:11;96918.09;;;9.46;100.00
13867;BME280;7003;46.982;15.248;2022-11-15T12:07:46;96926.91;;;9.08;100.00
13867;BME280;7003;46.982;15.248;2022-11-15T12:10:23;96914.38;;;9.17;100.00
13867;BME280;7003;46.982;15.248;2022-11-15T12:13:00;96907.41;;;9.13;100.00
13867;BME280;7003;46.982;15.248;2022-11-15T12:15:35;96901.78;;;8.76;100.00
13867;BME280;7003;46.982;15.248;2022-11-15T12:18:07;96901.34;;;8.74;100.00
13867;BME280;7003;46.982;15.248;2022-11-15T12:20:50;96890.88;;;8.69;100.00
13867;BME280;7003;46.982;15.248;2022-11-15T12:23:25;96892.44;;;8.70;100.00
13867;BME280;7003;46.982;15.248;2022-11-15T12:25:57;96897.13;;;8.73;100.00
13867;BME280;7003;46.982;15.248;2022-11-15T12:28:38;96891.34;;;8.71;100.00
13867;BME280;7003;46.982;15.248;2022-11-15T12:31:16;96895.50;;;8.90;100.00
13867;BME280;7003;46.982;15.248;2022-11-15T12:33:50;96885.25;;;8.79;100.00
13867;BME280;7003;46.982;15.248;2022-11-15T12:36:35;96890.13;;;8.60;100.00
13867;BME280;7003;46.982;15.248;2022-11-15T12:39:07;96885.28;;;8.71;100.00
13867;BME280;7003;46.982;15.248;2022-11-15T12:41:40;96881.84;;;8.70;100.00
13867;BME280;7003;46.982;15.248;2022-11-15T12:47:26;96877.25;;;8.50;100.00
13867;BME280;7003;46.982;15.248;2022-11-15T12:49:57;96869.16;;;8.38;100.00
13867;BME280;7003;46.982;15.248;2022-11-15T12:52:28;96867.91;;;8.44;100.00
13867;BME280;7003;46.982;15.248;2022-11-15T12:55:06;96872.44;;;8.43;100.00
13867;BME280;7003;46.982;15.248;2022-11-15T12:57:54;96871.13;;;8.58;100.00
13867;BME280;7003;46.982;15.248;2022-11-15T13:00:41;96870.09;;;8.51;100.00
13867;BME280;7003;46.982;15.248;2022-11-15T13:03:29;96869.22;;;8.21;100.00
13867;BME280;7003;46.982;15.248;2022-11-15T13:06:36;96868.25;;;8.25;100.00
13867;BME280;7003;46.982;15.248;2022-11-15T13:12:52;96848.91;;;8.42;100.00
13867;BME280;7003;46.982;15.248;2022-11-15T13:15:55;96852.34;;;8.42;100.00
13867;BME280;7003;46.982;15.248;2022-11-15T13:18:37;96843.31;;;8.35;100.00
13867;BME280;7003;46.982;15.248;2022-11-15T13:21:23;96842.53;;;8.26;100.00
13867;BME280;7003;46.982;15.248;2022-11-15T13:24:16;96832.22;;;8.41;100.00
13867;BME280;7003;46.982;15.248;2022-11-15T13:26:46;96827.88;;;8.28;100.00
13867;BME280;7003;46.982;15.248;2022-11-15T13:29:17;96825.53;;;8.27;100.00
13867;BME280;7003;46.982;15.248;2022-11-15T13:31:46;96823.69;;;8.36;100.00
13867;BME280;7003;46.982;15.248;2022-11-15T13:34:26;96821.13;;;8.48;100.00
13867;BME280;7003;46.982;15.248;2022-11-15T13:36:58;96831.44;;;8.41;100.00
13867;BME280;7003;46.982;15.248;2022-11-15T13:39:31;96827.88;;;8.28;100.00
13867;BME280;7003;46.982;15.248;2022-11-15T13:42:01;96824.78;;;8.35;100.00